createdAt,value
2017-11-29T00:00:25.046Z,9.23
2017-11-29T00:02:53.086Z,9.07
2017-11-29T00:05:21.423Z,8.57
2017-11-29T00:07:50.581Z,8.00
2017-11-29T00:10:18.900Z,8.13
2017-11-29T00:12:47.382Z,9.10
2017-11-29T00:15:17.126Z,8.90
2017-11-29T00:17:45.385Z,8.63
2017-11-29T00:20:14.533Z,9.23
2017-11-29T00:22:42.997Z,9.67
2017-11-29T00:25:11.258Z,8.87
2017-11-29T00:27:39.526Z,8.60
2017-11-29T00:30:07.795Z,9.30
2017-11-29T00:32:36.844Z,8.90
2017-11-29T00:35:05.097Z,9.93
2017-11-29T00:37:33.359Z,8.93
2017-11-29T00:40:01.698Z,9.03
2017-11-29T00:42:31.475Z,9.00
2017-11-29T00:44:59.752Z,9.57
2017-11-29T00:47:27.999Z,9.47
2017-11-29T00:49:57.258Z,10.00
2017-11-29T00:52:26.430Z,9.90
2017-11-29T00:54:55.794Z,8.63
2017-11-29T00:57:24.090Z,9.60
2017-11-29T00:59:52.547Z,8.97
2017-11-29T01:02:20.778Z,9.03
2017-11-29T01:04:49.018Z,8.73
2017-11-29T01:07:17.286Z,9.20
2017-11-29T01:09:46.370Z,8.93
2017-11-29T01:12:14.639Z,10.00
2017-11-29T01:14:42.990Z,9.93
2017-11-29T01:17:11.245Z,9.50
2017-11-29T01:19:39.744Z,9.03
2017-11-29T01:22:08.771Z,10.10
2017-11-29T01:24:38.348Z,9.30
2017-11-29T01:27:06.597Z,10.70
2017-11-29T01:29:35.651Z,10.33
2017-11-29T01:32:03.901Z,9.50
2017-11-29T01:34:32.956Z,9.97
2017-11-29T01:37:01.234Z,10.13
2017-11-29T01:39:29.528Z,10.90
2017-11-29T01:41:57.786Z,9.80
2017-11-29T01:44:26.067Z,10.83
2017-11-29T01:46:55.216Z,9.90
2017-11-29T01:49:24.383Z,9.30
2017-11-29T01:51:52.663Z,9.43
2017-11-29T01:54:20.902Z,9.20
2017-11-29T01:56:49.168Z,9.13
2017-11-29T01:59:17.453Z,8.57
2017-11-29T02:01:45.730Z,9.33
2017-11-29T02:04:15.526Z,8.70
2017-11-29T02:06:43.810Z,9.40
2017-11-29T02:09:12.083Z,10.00
2017-11-29T02:11:40.342Z,10.40
2017-11-29T02:14:08.624Z,9.03
2017-11-29T02:16:36.885Z,9.73
2017-11-29T02:19:05.135Z,9.50
2017-11-29T02:21:33.620Z,10.20
2017-11-29T02:24:01.889Z,8.63
2017-11-29T02:26:31.642Z,9.83
2017-11-29T02:29:03.549Z,8.60
2017-11-29T02:31:31.806Z,8.77
2017-11-29T02:34:00.094Z,9.10
2017-11-29T02:36:28.600Z,9.47
2017-11-29T02:38:58.876Z,8.63
2017-11-29T02:41:39.035Z,8.90
2017-11-29T02:44:08.994Z,9.37
2017-11-29T02:46:38.017Z,9.63
2017-11-29T02:49:06.334Z,9.03
2017-11-29T02:51:35.589Z,9.00
2017-11-29T02:54:04.600Z,9.30
2017-11-29T02:56:33.862Z,9.07
2017-11-29T02:59:02.895Z,9.73
2017-11-29T03:01:31.934Z,9.33
2017-11-29T03:04:00.324Z,9.57
2017-11-29T03:06:29.339Z,8.83
2017-11-29T03:08:58.389Z,9.57
2017-11-29T03:11:26.969Z,8.07
2017-11-29T03:13:55.248Z,8.77
2017-11-29T03:16:23.548Z,8.83
2017-11-29T03:18:51.837Z,8.77
2017-11-29T03:21:20.102Z,9.57
2017-11-29T03:23:48.370Z,10.07
2017-11-29T03:26:18.131Z,10.10
2017-11-29T03:28:46.411Z,10.77
2017-11-29T03:31:14.717Z,9.63
2017-11-29T03:33:43.099Z,10.10
2017-11-29T03:36:12.167Z,9.77
2017-11-29T03:38:40.517Z,11.20
2017-11-29T03:41:08.773Z,10.80
2017-11-29T03:43:37.249Z,8.80
2017-11-29T03:46:05.476Z,9.83
2017-11-29T03:48:34.646Z,10.67
2017-11-29T03:51:02.921Z,10.00
2017-11-29T03:53:31.225Z,9.03
2017-11-29T03:55:59.661Z,9.93
2017-11-29T03:58:27.919Z,10.90
2017-11-29T04:00:56.233Z,9.90
2017-11-29T04:03:24.514Z,8.60
2017-11-29T04:05:52.769Z,10.03
2017-11-29T04:08:21.054Z,9.27
2017-11-29T04:10:49.304Z,9.50
2017-11-29T04:13:17.697Z,9.07
2017-11-29T04:15:45.933Z,9.43
2017-11-29T04:18:14.310Z,10.33
2017-11-29T04:20:42.621Z,9.93
2017-11-29T04:23:11.659Z,9.53
2017-11-29T04:25:39.914Z,10.43
2017-11-29T04:28:08.221Z,9.20
2017-11-29T04:30:36.469Z,10.10
2017-11-29T04:33:04.771Z,9.67
2017-11-29T04:35:33.099Z,9.80
2017-11-29T04:38:01.383Z,9.77
2017-11-29T04:40:29.654Z,10.40
2017-11-29T04:42:58.071Z,12.07
2017-11-29T04:45:27.285Z,8.77
2017-11-29T04:47:55.650Z,8.70
2017-11-29T04:50:24.350Z,10.90
2017-11-29T04:52:52.643Z,9.50
2017-11-29T04:55:20.906Z,9.97
2017-11-29T04:57:49.230Z,10.07
2017-11-29T05:00:17.626Z,9.33
2017-11-29T05:02:45.896Z,10.30
2017-11-29T05:05:14.190Z,10.13
2017-11-29T05:07:42.452Z,9.30
2017-11-29T05:10:10.733Z,12.57
2017-11-29T05:12:39.018Z,9.90
2017-11-29T05:15:07.286Z,8.90
2017-11-29T05:17:35.556Z,9.00
2017-11-29T05:20:03.853Z,9.20
2017-11-29T05:22:32.924Z,9.17
2017-11-29T05:25:01.951Z,9.80
2017-11-29T05:27:30.726Z,9.57
2017-11-29T05:29:59.730Z,9.43
2017-11-29T05:32:29.594Z,9.13
2017-11-29T05:34:58.626Z,9.50
2017-11-29T05:37:27.688Z,9.30
2017-11-29T05:39:55.923Z,9.37
2017-11-29T05:42:24.241Z,9.80
2017-11-29T05:44:52.488Z,11.80
2017-11-29T05:47:20.773Z,10.50
2017-11-29T05:49:49.061Z,9.73
2017-11-29T05:52:17.344Z,9.43
2017-11-29T05:54:45.896Z,9.70
2017-11-29T05:57:14.174Z,9.73
2017-11-29T05:59:42.438Z,9.90
2017-11-29T06:02:10.713Z,10.67
2017-11-29T06:04:39.095Z,8.33
2017-11-29T06:07:07.445Z,11.00
2017-11-29T06:09:35.857Z,11.17
2017-11-29T06:12:04.213Z,10.77
2017-11-29T06:14:32.501Z,10.07
2017-11-29T06:17:00.742Z,9.57
2017-11-29T06:19:29.079Z,9.67
2017-11-29T06:21:58.295Z,9.70
2017-11-29T06:24:26.617Z,9.57
2017-11-29T06:26:54.905Z,10.67
2017-11-29T06:29:23.156Z,11.13
2017-11-29T06:31:52.387Z,11.30
2017-11-29T06:34:20.642Z,11.73
2017-11-29T06:36:48.945Z,11.60
2017-11-29T06:39:17.306Z,12.30
2017-11-29T06:41:45.630Z,12.00
2017-11-29T06:44:14.834Z,11.50
2017-11-29T06:46:43.961Z,10.80
2017-11-29T06:49:12.260Z,11.83
2017-11-29T06:51:40.553Z,10.47
2017-11-29T06:54:08.830Z,11.47
2017-11-29T06:56:37.107Z,10.10
2017-11-29T06:59:05.364Z,12.80
2017-11-29T07:01:33.646Z,11.60
2017-11-29T07:04:02.016Z,10.93
2017-11-29T07:06:30.296Z,12.40
2017-11-29T07:09:00.212Z,10.80
2017-11-29T07:11:28.533Z,13.13
2017-11-29T07:13:57.558Z,11.77
2017-11-29T07:16:26.713Z,13.50
2017-11-29T07:18:55.777Z,13.00
2017-11-29T07:21:24.078Z,12.43
2017-11-29T07:23:52.371Z,12.27
2017-11-29T07:26:20.617Z,14.30
2017-11-29T07:28:48.889Z,12.13
2017-11-29T07:31:17.154Z,13.77
2017-11-29T07:33:46.348Z,14.23
2017-11-29T07:36:15.235Z,13.40
2017-11-29T07:38:43.535Z,12.30
2017-11-29T07:41:12.427Z,13.73
2017-11-29T07:43:41.674Z,12.90
2017-11-29T07:46:09.914Z,12.90
2017-11-29T07:48:38.187Z,13.20
2017-11-29T07:51:06.442Z,12.77
2017-11-29T07:53:34.764Z,13.83
2017-11-29T07:56:03.018Z,13.93
2017-11-29T07:58:32.781Z,10.70
2017-11-29T08:01:01.066Z,12.20
2017-11-29T08:03:29.341Z,13.90
2017-11-29T08:05:57.836Z,13.70
2017-11-29T08:08:26.932Z,13.60
2017-11-29T08:10:55.251Z,11.33
2017-11-29T08:13:24.305Z,12.70
2017-11-29T08:15:52.603Z,13.83
2017-11-29T08:18:20.845Z,12.50
2017-11-29T08:20:49.484Z,12.80
2017-11-29T08:23:17.760Z,13.40
2017-11-29T08:25:46.048Z,12.60
2017-11-29T08:28:14.347Z,11.80
2017-11-29T08:30:42.794Z,12.97
2017-11-29T08:33:11.038Z,12.53
2017-11-29T08:35:39.508Z,12.33
2017-11-29T08:38:07.794Z,13.50
2017-11-29T08:40:36.255Z,12.13
2017-11-29T08:43:06.452Z,13.00
2017-11-29T08:45:35.598Z,10.90
2017-11-29T08:48:03.874Z,11.33
2017-11-29T08:50:32.225Z,11.50
2017-11-29T08:53:00.502Z,10.80
2017-11-29T08:55:28.837Z,10.97
2017-11-29T08:57:57.123Z,11.07
2017-11-29T09:00:25.396Z,11.20
2017-11-29T09:02:53.720Z,12.80
2017-11-29T09:05:23.237Z,12.67
2017-11-29T09:07:51.515Z,12.33
2017-11-29T09:10:19.801Z,12.70
2017-11-29T09:12:50.209Z,11.53
2017-11-29T09:15:18.562Z,11.60
2017-11-29T09:17:47.006Z,11.50
2017-11-29T09:20:15.832Z,12.20
2017-11-29T09:22:44.154Z,11.50
2017-11-29T09:25:14.222Z,12.40
2017-11-29T09:27:42.539Z,11.33
2017-11-29T09:30:12.457Z,11.97
2017-11-29T09:32:40.759Z,11.70
2017-11-29T09:35:09.089Z,11.50
2017-11-29T09:37:37.393Z,12.40
2017-11-29T09:40:05.670Z,11.43
2017-11-29T09:42:33.993Z,11.80
2017-11-29T09:45:02.296Z,12.47
2017-11-29T09:47:30.568Z,12.17
2017-11-29T09:49:59.096Z,11.17
2017-11-29T09:52:28.162Z,12.00
2017-11-29T09:54:56.486Z,10.63
2017-11-29T09:57:27.334Z,11.23
2017-11-29T09:59:55.629Z,12.67
2017-11-29T10:02:25.173Z,11.87
2017-11-29T10:04:53.511Z,11.43
2017-11-29T10:07:21.814Z,12.53
2017-11-29T10:09:50.129Z,13.57
2017-11-29T10:12:18.429Z,12.60
2017-11-29T10:14:47.013Z,14.87
2017-11-29T10:17:15.279Z,15.97
2017-11-29T10:19:43.620Z,13.07
2017-11-29T10:22:12.308Z,12.07
2017-11-29T10:24:40.636Z,13.10
2017-11-29T10:27:08.927Z,13.53
2017-11-29T10:29:37.355Z,12.40
2017-11-29T10:32:06.559Z,13.20
2017-11-29T10:34:36.607Z,14.37
2017-11-29T10:37:05.056Z,14.20
2017-11-29T10:39:33.511Z,14.13
2017-11-29T10:42:01.886Z,13.30
2017-11-29T10:44:31.098Z,13.70
2017-11-29T10:47:01.433Z,12.23
2017-11-29T10:49:29.729Z,12.90
2017-11-29T10:51:59.027Z,12.33
2017-11-29T10:54:27.328Z,12.30
2017-11-29T10:56:55.809Z,13.27
2017-11-29T10:59:24.155Z,12.07
2017-11-29T11:01:53.199Z,11.83
2017-11-29T11:04:21.514Z,11.67
2017-11-29T11:06:50.119Z,12.63
2017-11-29T11:09:18.456Z,12.03
2017-11-29T11:11:46.858Z,11.37
2017-11-29T11:14:16.088Z,12.10
2017-11-29T11:16:44.354Z,12.63
2017-11-29T11:19:12.710Z,12.13
2017-11-29T11:21:41.849Z,14.13
2017-11-29T11:24:10.170Z,10.90
2017-11-29T11:26:38.464Z,11.20
2017-11-29T11:29:06.755Z,9.70
2017-11-29T11:31:35.075Z,10.67
2017-11-29T11:34:03.585Z,10.93
2017-11-29T11:36:31.845Z,10.87
2017-11-29T11:39:00.254Z,11.63
2017-11-29T11:41:28.780Z,10.27
2017-11-29T11:43:58.048Z,11.33
2017-11-29T11:46:26.359Z,10.50
2017-11-29T11:48:54.720Z,10.07
2017-11-29T11:51:23.930Z,9.33
2017-11-29T11:53:52.342Z,10.43
2017-11-29T11:56:20.640Z,10.10
2017-11-29T11:58:49.123Z,9.80
2017-11-29T12:01:17.910Z,9.07
2017-11-29T12:03:46.288Z,8.50
2017-11-29T12:06:14.706Z,9.23
2017-11-29T12:08:43.151Z,10.43
2017-11-29T12:11:11.450Z,9.50
2017-11-29T12:13:39.728Z,10.40
2017-11-29T12:16:08.153Z,9.10
2017-11-29T12:18:36.483Z,9.23
2017-11-29T12:21:04.823Z,9.10
2017-11-29T12:23:33.873Z,7.80
2017-11-29T12:26:03.135Z,7.90
2017-11-29T12:28:31.570Z,8.90
2017-11-29T12:31:00.644Z,10.10
2017-11-29T12:33:29.730Z,10.13
2017-11-29T12:35:59.109Z,9.23
2017-11-29T12:38:28.138Z,7.80
2017-11-29T12:40:57.597Z,9.33
2017-11-29T12:43:26.850Z,8.00
2017-11-29T12:45:55.135Z,8.63
2017-11-29T12:48:35.626Z,7.87
2017-11-29T12:51:22.763Z,8.43
2017-11-29T12:53:54.319Z,8.20
2017-11-29T12:56:22.589Z,7.73
2017-11-29T12:58:50.940Z,9.13
2017-11-29T13:01:19.344Z,7.67
2017-11-29T13:03:47.679Z,8.80
2017-11-29T13:06:15.956Z,9.00
2017-11-29T13:08:44.251Z,10.00
2017-11-29T13:11:12.555Z,9.00
2017-11-29T13:13:40.844Z,8.83
2017-11-29T13:16:09.103Z,10.10
2017-11-29T13:18:37.470Z,10.60
2017-11-29T13:21:05.901Z,11.07
2017-11-29T13:23:35.140Z,9.30
2017-11-29T13:26:04.550Z,9.73
2017-11-29T13:28:32.927Z,10.90
2017-11-29T13:31:01.792Z,9.30
2017-11-29T13:33:31.152Z,10.63
2017-11-29T13:35:59.573Z,10.47
2017-11-29T13:38:28.627Z,11.03
2017-11-29T13:40:57.010Z,12.13
2017-11-29T13:43:27.161Z,11.20
2017-11-29T13:45:55.550Z,10.60
2017-11-29T13:48:24.775Z,10.77
2017-11-29T13:50:54.109Z,10.53
2017-11-29T13:53:23.573Z,12.50
2017-11-29T13:55:52.685Z,11.00
2017-11-29T13:58:21.087Z,11.60
2017-11-29T14:00:49.568Z,11.47
2017-11-29T14:03:17.883Z,9.93
2017-11-29T14:05:46.461Z,10.70
2017-11-29T14:08:16.620Z,11.57
2017-11-29T14:10:45.017Z,11.40
2017-11-29T14:13:13.313Z,10.70
2017-11-29T14:15:41.608Z,9.87
2017-11-29T14:18:09.913Z,11.60
2017-11-29T14:20:38.180Z,11.87
2017-11-29T14:23:06.495Z,11.63
2017-11-29T14:25:34.739Z,11.23
2017-11-29T14:28:03.141Z,11.53
2017-11-29T14:30:31.396Z,12.53
2017-11-29T14:33:01.279Z,13.00
2017-11-29T14:35:29.546Z,11.77
2017-11-29T14:37:58.909Z,11.50
2017-11-29T14:40:27.948Z,12.00
2017-11-29T14:42:56.239Z,10.80
2017-11-29T14:45:24.538Z,10.33
2017-11-29T14:47:52.827Z,10.40
2017-11-29T14:50:21.145Z,10.20
2017-11-29T14:52:49.601Z,10.37
2017-11-29T14:55:18.058Z,9.57
2017-11-29T14:57:46.514Z,8.87
2017-11-29T15:00:14.846Z,10.40
2017-11-29T15:02:43.209Z,9.80
2017-11-29T15:05:11.594Z,11.03
2017-11-29T15:07:39.877Z,10.77
2017-11-29T15:10:08.182Z,11.83
2017-11-29T15:12:37.851Z,11.47
2017-11-29T15:15:06.082Z,13.90
2017-11-29T15:17:34.422Z,15.40
2017-11-29T15:20:03.433Z,13.87
2017-11-29T15:22:32.752Z,11.87
2017-11-29T15:25:00.998Z,11.67
2017-11-29T15:27:29.302Z,11.27
2017-11-29T15:29:57.610Z,17.00
2017-11-29T15:32:25.951Z,13.00
2017-11-29T15:34:55.065Z,14.80
2017-11-29T15:37:23.782Z,16.60
2017-11-29T15:39:52.046Z,13.50
2017-11-29T15:42:20.331Z,13.53
2017-11-29T15:44:49.425Z,13.53
2017-11-29T15:47:17.882Z,17.60
2017-11-29T15:49:47.051Z,18.03
2017-11-29T15:52:16.310Z,14.20
2017-11-29T15:54:44.700Z,11.10
2017-11-29T15:57:13.275Z,14.63
2017-11-29T15:59:41.559Z,15.50
2017-11-29T16:02:09.871Z,16.47
2017-11-29T16:04:38.141Z,13.53
2017-11-29T16:07:06.408Z,14.13
2017-11-29T16:09:34.701Z,12.53
2017-11-29T16:12:02.979Z,10.67
2017-11-29T16:14:31.302Z,9.73
2017-11-29T16:17:00.450Z,7.57
2017-11-29T16:19:29.230Z,8.87
2017-11-29T16:21:57.499Z,9.20
2017-11-29T16:24:25.771Z,9.67
2017-11-29T16:26:54.041Z,9.43
2017-11-29T16:29:22.340Z,8.50
2017-11-29T16:31:50.641Z,10.27
2017-11-29T16:34:18.913Z,12.17
2017-11-29T16:36:47.179Z,13.70
2017-11-29T16:39:15.443Z,15.33
2017-11-29T16:41:43.772Z,13.47
2017-11-29T16:44:12.160Z,11.37
2017-11-29T16:46:40.422Z,12.27
2017-11-29T16:49:09.527Z,11.97
2017-11-29T16:51:38.570Z,12.63
2017-11-29T16:54:06.887Z,12.20
2017-11-29T16:56:35.158Z,11.70
2017-11-29T16:59:03.491Z,10.90
2017-11-29T17:01:32.700Z,10.20
2017-11-29T17:04:01.014Z,11.83
2017-11-29T17:06:29.282Z,11.80
2017-11-29T17:08:57.585Z,12.00
2017-11-29T17:11:25.914Z,15.93
2017-11-29T17:13:54.314Z,15.40
2017-11-29T17:16:22.824Z,17.30
2017-11-29T17:18:51.097Z,16.07
2017-11-29T17:21:19.412Z,11.60
2017-11-29T17:23:47.711Z,11.23
2017-11-29T17:26:15.980Z,12.80
2017-11-29T17:28:45.904Z,12.47
2017-11-29T17:31:14.194Z,14.83
2017-11-29T17:33:43.348Z,18.90
2017-11-29T17:36:12.406Z,20.67
2017-11-29T17:38:40.682Z,20.47
2017-11-29T17:41:09.027Z,21.27
2017-11-29T17:43:37.292Z,15.47
2017-11-29T17:46:05.578Z,18.17
2017-11-29T17:48:33.896Z,16.27
2017-11-29T17:51:02.149Z,15.00
2017-11-29T17:53:30.451Z,13.90
2017-11-29T17:55:58.772Z,15.20
2017-11-29T17:58:27.058Z,14.63
2017-11-29T18:00:56.194Z,15.60
2017-11-29T18:03:24.494Z,14.07
2017-11-29T18:05:52.810Z,16.90
2017-11-29T18:08:21.111Z,15.23
2017-11-29T18:10:49.410Z,15.20
2017-11-29T18:13:17.827Z,15.53
2017-11-29T18:15:46.115Z,15.73
2017-11-29T18:18:14.399Z,14.90
2017-11-29T18:20:42.691Z,15.17
2017-11-29T18:23:11.000Z,14.43
2017-11-29T18:25:39.576Z,13.03
2017-11-29T18:28:07.870Z,13.20
2017-11-29T18:30:36.164Z,12.70
2017-11-29T18:33:04.626Z,13.27
2017-11-29T18:35:33.742Z,16.50
2017-11-29T18:38:02.187Z,16.73
2017-11-29T18:40:30.458Z,16.37
2017-11-29T18:42:58.753Z,15.20
2017-11-29T18:45:27.074Z,14.80
2017-11-29T18:47:55.357Z,17.33
2017-11-29T18:50:23.632Z,14.43
2017-11-29T18:52:51.928Z,14.73
2017-11-29T18:55:22.010Z,17.23
2017-11-29T18:57:50.300Z,16.23
2017-11-29T19:00:18.592Z,14.20
2017-11-29T19:02:47.761Z,17.90
2017-11-29T19:05:16.293Z,19.20
2017-11-29T19:07:45.597Z,18.87
2017-11-29T19:10:14.000Z,16.60
2017-11-29T19:12:43.097Z,16.70
2017-11-29T19:15:11.462Z,19.10
2017-11-29T19:17:40.130Z,15.67
2017-11-29T19:20:10.456Z,16.10
2017-11-29T19:22:39.550Z,15.60
2017-11-29T19:25:08.241Z,16.50
2017-11-29T19:27:37.948Z,15.83
2017-11-29T19:30:06.632Z,20.23
2017-11-29T19:32:37.983Z,17.60
2017-11-29T19:35:06.679Z,16.30
2017-11-29T19:37:35.738Z,16.57
2017-11-29T19:40:05.183Z,17.00
2017-11-29T19:42:35.037Z,15.23
2017-11-29T19:45:04.580Z,16.83
2017-11-29T19:47:33.476Z,17.60
2017-11-29T19:50:03.182Z,17.07
2017-11-29T19:52:31.865Z,18.00
2017-11-29T19:55:01.174Z,17.00
2017-11-29T19:57:30.035Z,17.30
2017-11-29T19:59:58.898Z,16.43
2017-11-29T20:02:28.663Z,18.27
2017-11-29T20:04:57.345Z,16.70
2017-11-29T20:07:27.067Z,16.07
2017-11-29T20:09:55.948Z,15.07
2017-11-29T20:12:24.835Z,17.30
2017-11-29T20:14:53.520Z,16.33
2017-11-29T20:17:22.207Z,16.83
2017-11-29T20:19:50.893Z,16.37
2017-11-29T20:22:21.487Z,15.50
2017-11-29T20:24:51.340Z,16.97
2017-11-29T20:27:20.029Z,14.70
2017-11-29T20:29:48.707Z,13.93
2017-11-29T20:32:17.403Z,16.40
2017-11-29T20:34:45.874Z,17.17
2017-11-29T20:37:14.254Z,21.57
2017-11-29T20:39:43.824Z,21.00
2017-11-29T20:42:12.692Z,20.90
2017-11-29T20:44:42.262Z,21.00
2017-11-29T20:47:11.180Z,19.73
2017-11-29T20:49:39.705Z,18.83
2017-11-29T20:52:16.013Z,19.50
2017-11-29T20:54:46.223Z,16.40
2017-11-29T20:57:15.311Z,18.53
2017-11-29T20:59:43.686Z,19.30
2017-11-29T21:02:13.640Z,17.03
2017-11-29T21:04:42.099Z,15.60
2017-11-29T21:07:10.409Z,16.10
2017-11-29T21:09:38.702Z,15.63
2017-11-29T21:12:07.153Z,15.60
2017-11-29T21:14:35.601Z,16.47
2017-11-29T21:17:04.249Z,15.40
2017-11-29T21:19:32.690Z,13.50
2017-11-29T21:22:02.081Z,14.80
2017-11-29T21:24:31.211Z,14.70
2017-11-29T21:27:05.226Z,15.53
2017-11-29T21:29:36.089Z,15.40
2017-11-29T21:32:04.768Z,15.40
2017-11-29T21:34:36.816Z,17.77
2017-11-29T21:37:05.712Z,17.33
2017-11-29T21:39:34.070Z,15.70
2017-11-29T21:42:03.141Z,15.43
2017-11-29T21:44:33.973Z,13.90
2017-11-29T21:47:02.375Z,13.20
2017-11-29T21:49:30.728Z,13.97
2017-11-29T21:52:00.106Z,13.43
2017-11-29T21:54:28.372Z,12.87
2017-11-29T21:56:56.812Z,13.33
2017-11-29T21:59:25.978Z,13.37
2017-11-29T22:01:54.809Z,13.50
2017-11-29T22:04:23.396Z,12.77
2017-11-29T22:06:51.678Z,13.70
2017-11-29T22:09:19.972Z,15.70
2017-11-29T22:11:48.310Z,12.60
2017-11-29T22:14:16.644Z,12.43
2017-11-29T22:16:44.936Z,13.47
2017-11-29T22:19:14.700Z,14.60
2017-11-29T22:21:43.001Z,13.83
2017-11-29T22:24:11.415Z,15.50
2017-11-29T22:26:39.727Z,15.13
2017-11-29T22:29:08.165Z,18.60
2017-11-29T22:31:36.703Z,20.07
2017-11-29T22:34:04.989Z,19.03
2017-11-29T22:36:34.105Z,17.13
2017-11-29T22:39:03.524Z,16.93
2017-11-29T22:41:34.092Z,17.00
2017-11-29T22:44:06.433Z,15.03
2017-11-29T22:46:34.686Z,17.67
2017-11-29T22:49:02.963Z,16.70
2017-11-29T22:51:31.260Z,20.40
2017-11-29T22:53:59.526Z,14.27
2017-11-29T22:56:28.746Z,24.63
2017-11-29T22:58:57.141Z,23.27
2017-11-29T23:01:25.423Z,22.53
2017-11-29T23:03:53.698Z,16.07
2017-11-29T23:06:21.974Z,15.10
2017-11-29T23:08:50.264Z,16.20
2017-11-29T23:11:18.534Z,19.20
2017-11-29T23:13:46.833Z,16.50
2017-11-29T23:16:15.215Z,15.27
2017-11-29T23:18:43.490Z,15.73
2017-11-29T23:21:11.961Z,22.27
2017-11-29T23:23:40.216Z,21.13
2017-11-29T23:26:09.315Z,20.10
2017-11-29T23:28:38.555Z,26.30
2017-11-29T23:31:07.903Z,20.33
2017-11-29T23:33:36.338Z,25.40
2017-11-29T23:36:05.000Z,23.40
2017-11-29T23:38:34.293Z,25.27
2017-11-29T23:41:02.714Z,20.57
2017-11-29T23:43:31.722Z,17.80
2017-11-29T23:46:00.850Z,20.07
2017-11-29T23:48:30.015Z,22.03
2017-11-29T23:50:58.316Z,18.20
2017-11-29T23:53:26.815Z,15.70
2017-11-29T23:55:55.920Z,16.80
2017-11-29T23:58:24.370Z,18.97
